createdAt,value
2024-02-13T00:00:58.168Z,7.25
2024-02-13T00:03:25.742Z,7.24
2024-02-13T00:05:53.065Z,7.21
2024-02-13T00:08:20.020Z,7.22
2024-02-13T00:10:47.256Z,7.20
2024-02-13T00:13:13.829Z,7.18
2024-02-13T00:15:40.658Z,7.18
2024-02-13T00:18:09.304Z,7.15
2024-02-13T00:20:36.127Z,7.18
2024-02-13T00:23:04.248Z,7.17
2024-02-13T00:25:30.793Z,7.12
2024-02-13T00:27:57.352Z,7.12
2024-02-13T00:30:24.799Z,7.16
2024-02-13T00:32:51.523Z,7.14
2024-02-13T00:35:18.227Z,7.13
2024-02-13T00:37:45.553Z,7.12
2024-02-13T00:40:12.066Z,7.08
2024-02-13T00:42:38.998Z,7.13
2024-02-13T00:45:08.306Z,7.07
2024-02-13T00:47:35.546Z,7.13
2024-02-13T00:50:03.828Z,7.12
2024-02-13T00:52:30.330Z,7.06
2024-02-13T00:54:57.387Z,7.10
2024-02-13T00:57:25.267Z,7.07
2024-02-13T00:59:52.422Z,7.08
2024-02-13T01:02:19.118Z,7.07
2024-02-13T01:04:45.703Z,7.04
2024-02-13T01:07:12.333Z,7.04
2024-02-13T01:09:38.844Z,7.02
2024-02-13T01:12:05.459Z,7.04
2024-02-13T01:14:32.366Z,7.02
2024-02-13T01:16:58.906Z,7.02
2024-02-13T01:19:25.376Z,6.98
2024-02-13T01:21:51.999Z,6.99
2024-02-13T01:24:18.504Z,6.93
2024-02-13T01:26:45.848Z,6.92
2024-02-13T01:29:15.912Z,6.97
2024-02-13T01:31:43.240Z,6.97
2024-02-13T01:34:09.885Z,6.94
2024-02-13T01:36:38.874Z,6.94
2024-02-13T01:39:06.296Z,6.97
2024-02-13T01:41:33.254Z,6.94
2024-02-13T01:44:00.914Z,6.96
2024-02-13T01:46:29.586Z,6.92
2024-02-13T01:49:00.011Z,6.96
2024-02-13T01:51:29.085Z,6.94
2024-02-13T01:53:59.810Z,6.97
2024-02-13T01:56:28.908Z,6.97
2024-02-13T01:58:56.782Z,6.94
2024-02-13T02:01:25.968Z,6.96
2024-02-13T02:03:54.694Z,6.96
2024-02-13T02:06:21.941Z,6.97
2024-02-13T02:08:48.851Z,6.92
2024-02-13T02:11:15.560Z,6.94
2024-02-13T02:13:43.667Z,6.91
2024-02-13T02:16:10.282Z,6.94
2024-02-13T02:18:37.415Z,6.93
2024-02-13T02:21:04.286Z,6.89
2024-02-13T02:23:31.060Z,6.87
2024-02-13T02:25:57.886Z,6.92
2024-02-13T02:28:25.425Z,6.91
2024-02-13T02:30:52.173Z,6.88
2024-02-13T02:33:19.020Z,6.87
2024-02-13T02:35:45.653Z,6.80
2024-02-13T02:38:12.399Z,6.85
2024-02-13T02:40:39.047Z,6.86
2024-02-13T02:43:05.600Z,6.85
2024-02-13T02:45:32.225Z,6.83
2024-02-13T02:47:58.906Z,6.81
2024-02-13T02:50:25.681Z,6.83
2024-02-13T02:52:52.802Z,6.82
2024-02-13T02:55:19.851Z,6.80
2024-02-13T02:57:46.714Z,6.80
2024-02-13T03:00:15.690Z,6.78
2024-02-13T03:02:42.958Z,6.75
2024-02-13T03:05:10.300Z,6.78
2024-02-13T03:07:37.306Z,6.76
2024-02-13T03:10:11.201Z,6.77
2024-02-13T03:12:38.494Z,6.74
2024-02-13T03:15:05.422Z,6.74
2024-02-13T03:17:32.886Z,6.75
2024-02-13T03:19:59.555Z,6.72
2024-02-13T03:22:29.297Z,6.73
2024-02-13T03:24:55.909Z,6.72
2024-02-13T03:27:22.454Z,6.70
2024-02-13T03:29:49.111Z,6.68
2024-02-13T03:32:15.763Z,6.72
2024-02-13T03:34:42.944Z,6.67
2024-02-13T03:37:09.854Z,6.72
2024-02-13T03:39:37.212Z,6.70
2024-02-13T03:42:04.020Z,6.70
2024-02-13T03:44:30.544Z,6.67
2024-02-13T03:46:57.049Z,6.69
2024-02-13T03:49:24.241Z,6.68
2024-02-13T03:51:50.825Z,6.67
2024-02-13T03:54:17.367Z,6.68
2024-02-13T03:56:44.556Z,6.68
2024-02-13T03:59:14.044Z,6.70
2024-02-13T04:01:41.016Z,6.66
2024-02-13T04:04:07.586Z,6.67
2024-02-13T04:06:34.563Z,6.66
2024-02-13T04:09:03.948Z,6.70
2024-02-13T04:11:31.658Z,6.69
2024-02-13T04:13:58.428Z,6.66
2024-02-13T04:16:25.263Z,6.69
2024-02-13T04:18:54.403Z,6.70
2024-02-13T04:21:21.925Z,6.69
2024-02-13T04:23:50.228Z,6.68
2024-02-13T04:26:25.984Z,6.68
2024-02-13T04:29:02.791Z,6.69
2024-02-13T04:31:29.293Z,6.70
2024-02-13T04:33:55.999Z,6.69
2024-02-13T04:36:22.691Z,6.71
2024-02-13T04:38:49.456Z,6.70
2024-02-13T04:41:19.359Z,6.69
2024-02-13T04:43:46.006Z,6.69
2024-02-13T04:46:12.538Z,6.68
2024-02-13T04:48:40.451Z,6.68
2024-02-13T04:51:07.111Z,6.70
2024-02-13T04:53:33.911Z,6.69
2024-02-13T04:56:00.580Z,6.68
2024-02-13T04:58:31.574Z,6.68
2024-02-13T05:01:06.615Z,6.67
2024-02-13T05:03:42.857Z,6.67
2024-02-13T05:06:28.512Z,6.67
2024-02-13T05:08:57.142Z,6.67
2024-02-13T05:11:24.844Z,6.67
2024-02-13T05:13:52.028Z,6.70
2024-02-13T05:16:19.634Z,6.67
2024-02-13T05:18:49.297Z,6.69
2024-02-13T05:21:19.820Z,6.67
2024-02-13T05:23:48.746Z,6.66
2024-02-13T05:26:15.578Z,6.65
2024-02-13T05:28:43.694Z,6.65
2024-02-13T05:31:10.423Z,6.67
2024-02-13T05:33:37.535Z,6.63
2024-02-13T05:36:05.306Z,6.64
2024-02-13T05:38:38.979Z,6.62
2024-02-13T05:41:08.522Z,6.64
2024-02-13T05:43:34.990Z,6.62
2024-02-13T05:46:01.546Z,6.60
2024-02-13T05:48:28.178Z,6.56
2024-02-13T05:50:55.765Z,6.57
2024-02-13T05:53:23.163Z,6.56
2024-02-13T05:55:50.003Z,6.56
2024-02-13T05:58:16.471Z,6.53
2024-02-13T06:00:43.272Z,6.55
2024-02-13T06:03:10.072Z,6.53
2024-02-13T06:05:36.804Z,6.53
2024-02-13T06:08:04.833Z,6.51
2024-02-13T06:10:34.911Z,6.45
2024-02-13T06:13:01.458Z,6.46
2024-02-13T06:15:27.976Z,6.46
2024-02-13T06:17:55.534Z,6.48
2024-02-13T06:20:22.365Z,6.43
2024-02-13T06:22:48.992Z,6.42
2024-02-13T06:25:16.175Z,6.45
2024-02-13T06:27:42.688Z,6.44
2024-02-13T06:30:09.737Z,6.43
2024-02-13T06:32:36.361Z,6.39
2024-02-13T06:35:03.071Z,6.38
2024-02-13T06:37:29.565Z,6.38
2024-02-13T06:39:56.578Z,6.36
2024-02-13T06:42:23.096Z,6.37
2024-02-13T06:44:49.764Z,6.35
2024-02-13T06:47:16.285Z,6.32
2024-02-13T06:49:42.912Z,6.35
2024-02-13T06:52:10.914Z,6.36
2024-02-13T06:54:37.513Z,6.30
2024-02-13T06:57:04.972Z,6.30
2024-02-13T06:59:31.640Z,6.30
2024-02-13T07:01:58.276Z,6.31
2024-02-13T07:04:24.858Z,6.32
2024-02-13T07:07:08.540Z,6.28
2024-02-13T07:09:46.940Z,6.31
2024-02-13T07:12:13.511Z,6.31
2024-02-13T07:14:40.206Z,6.26
2024-02-13T07:17:06.746Z,6.28
2024-02-13T07:19:33.373Z,6.26
2024-02-13T07:21:59.892Z,6.29
2024-02-13T07:24:26.469Z,6.25
2024-02-13T07:26:53.106Z,6.27
2024-02-13T07:29:20.197Z,6.27
2024-02-13T07:31:47.690Z,6.28
2024-02-13T07:34:14.289Z,6.26
2024-02-13T07:36:41.034Z,6.27
2024-02-13T07:39:08.446Z,6.26
2024-02-13T07:41:36.702Z,6.24
2024-02-13T07:44:03.402Z,6.24
2024-02-13T07:46:30.397Z,6.26
2024-02-13T07:48:57.039Z,6.23
2024-02-13T07:51:24.053Z,6.27
2024-02-13T07:53:50.899Z,6.27
2024-02-13T07:56:20.220Z,6.27
2024-02-13T07:58:46.807Z,6.27
2024-02-13T08:01:13.958Z,6.27
2024-02-13T08:03:40.573Z,6.23
2024-02-13T08:06:07.572Z,6.28
2024-02-13T08:08:34.731Z,6.25
2024-02-13T08:11:01.311Z,6.27
2024-02-13T08:13:27.776Z,6.29
2024-02-13T08:15:54.273Z,6.26
2024-02-13T08:18:20.897Z,6.28
2024-02-13T08:20:47.692Z,6.29
2024-02-13T08:23:14.667Z,6.30
2024-02-13T08:25:41.598Z,6.29
2024-02-13T08:28:11.242Z,6.26
2024-02-13T08:30:38.010Z,6.30
2024-02-13T08:33:05.621Z,6.31
2024-02-13T08:35:32.514Z,6.29
2024-02-13T08:37:59.694Z,6.31
2024-02-13T08:40:26.230Z,6.33
2024-02-13T08:42:54.032Z,6.33
2024-02-13T08:45:21.955Z,6.35
2024-02-13T08:47:50.795Z,6.35
2024-02-13T08:50:18.428Z,6.29
2024-02-13T08:52:45.468Z,6.38
2024-02-13T08:55:11.946Z,6.38
2024-02-13T08:57:39.016Z,6.42
2024-02-13T09:00:11.421Z,6.43
2024-02-13T09:02:38.348Z,6.43
2024-02-13T09:05:05.738Z,6.45
2024-02-13T09:07:32.595Z,6.45
2024-02-13T09:09:59.709Z,6.44
2024-02-13T09:12:26.386Z,6.50
2024-02-13T09:14:53.019Z,6.51
2024-02-13T09:17:19.733Z,6.54
2024-02-13T09:19:46.524Z,6.53
2024-02-13T09:22:14.887Z,6.54
2024-02-13T09:24:45.387Z,6.59
2024-02-13T09:27:12.702Z,6.58
2024-02-13T09:29:39.777Z,6.64
2024-02-13T09:32:06.476Z,6.63
2024-02-13T09:34:33.214Z,6.65
2024-02-13T09:37:00.225Z,6.64
2024-02-13T09:39:26.766Z,6.67
2024-02-13T09:41:55.180Z,6.68
2024-02-13T09:44:21.855Z,6.69
2024-02-13T09:46:50.811Z,6.76
2024-02-13T09:49:18.304Z,6.76
2024-02-13T09:51:49.249Z,6.77
2024-02-13T09:54:16.612Z,6.81
2024-02-13T09:56:43.838Z,6.82
2024-02-13T09:59:13.128Z,6.78
2024-02-13T10:01:39.895Z,6.85
2024-02-13T10:04:07.969Z,6.87
2024-02-13T10:06:34.871Z,6.89
2024-02-13T10:09:02.165Z,6.92
2024-02-13T10:11:37.503Z,6.89
2024-02-13T10:14:04.306Z,6.89
2024-02-13T10:16:32.040Z,6.94
2024-02-13T10:19:01.642Z,6.97
2024-02-13T10:21:30.488Z,6.96
2024-02-13T10:24:14.821Z,6.99
2024-02-13T10:26:41.440Z,6.97
2024-02-13T10:29:09.009Z,7.00
2024-02-13T10:31:36.670Z,6.97
2024-02-13T10:34:08.349Z,7.03
2024-02-13T10:36:39.783Z,6.98
2024-02-13T10:39:09.338Z,7.08
2024-02-13T10:41:44.759Z,7.11
2024-02-13T10:44:12.120Z,7.13
2024-02-13T10:46:43.098Z,7.16
2024-02-13T10:49:34.276Z,7.16
2024-02-13T10:52:00.928Z,7.19
2024-02-13T10:54:28.090Z,7.21
2024-02-13T10:56:56.194Z,7.23
2024-02-13T10:59:23.795Z,7.24
2024-02-13T11:01:52.903Z,7.26
2024-02-13T11:04:20.948Z,7.30
2024-02-13T11:06:47.610Z,7.30
2024-02-13T11:09:14.496Z,7.26
2024-02-13T11:11:46.110Z,7.34
2024-02-13T11:14:23.227Z,7.36
2024-02-13T11:17:10.777Z,7.36
2024-02-13T11:19:45.650Z,7.41
2024-02-13T11:22:17.428Z,7.38
2024-02-13T11:24:53.107Z,7.43
2024-02-13T11:27:29.872Z,7.46
2024-02-13T11:30:00.175Z,7.46
2024-02-13T11:32:30.658Z,7.49
2024-02-13T11:35:02.623Z,7.48
2024-02-13T11:37:29.700Z,7.50
2024-02-13T11:39:58.714Z,7.53
2024-02-13T11:42:33.643Z,7.56
2024-02-13T11:45:01.559Z,7.56
2024-02-13T11:47:28.455Z,7.58
2024-02-13T11:49:56.428Z,7.59
2024-02-13T11:52:24.596Z,7.62
2024-02-13T11:54:52.228Z,7.60
2024-02-13T11:57:20.993Z,7.63
2024-02-13T12:00:02.572Z,7.64
2024-02-13T12:02:31.078Z,7.66
2024-02-13T12:04:57.574Z,7.64
2024-02-13T12:07:24.168Z,7.64
2024-02-13T12:09:52.387Z,7.71
2024-02-13T12:12:19.899Z,7.73
2024-02-13T12:14:46.907Z,7.74
2024-02-13T12:17:13.810Z,7.75
2024-02-13T12:19:41.872Z,7.74
2024-02-13T12:22:14.560Z,7.78
2024-02-13T12:24:41.778Z,7.78
2024-02-13T12:27:11.719Z,7.81
2024-02-13T12:29:43.630Z,7.83
2024-02-13T12:32:17.248Z,7.84
2024-02-13T12:34:45.024Z,7.82
2024-02-13T12:37:21.471Z,7.88
2024-02-13T12:39:48.775Z,7.90
2024-02-13T12:42:18.289Z,7.92
2024-02-13T12:44:45.457Z,7.93
2024-02-13T12:47:14.972Z,7.92
2024-02-13T12:49:46.670Z,7.94
2024-02-13T12:52:18.052Z,7.98
2024-02-13T12:54:47.400Z,7.92
2024-02-13T12:57:14.129Z,8.00
2024-02-13T12:59:40.632Z,8.02
2024-02-13T13:02:10.295Z,8.03
2024-02-13T13:04:37.040Z,8.05
2024-02-13T13:07:06.798Z,8.08
2024-02-13T13:09:33.428Z,8.09
2024-02-13T13:12:00.167Z,8.09
2024-02-13T13:14:28.791Z,8.11
2024-02-13T13:16:56.600Z,8.10
2024-02-13T13:19:28.789Z,8.11
2024-02-13T13:21:56.460Z,8.12
2024-02-13T13:24:24.019Z,8.14
2024-02-13T13:26:51.573Z,8.13
2024-02-13T13:29:18.784Z,8.17
2024-02-13T13:31:48.589Z,8.14
2024-02-13T13:34:21.307Z,8.19
2024-02-13T13:36:48.714Z,8.18
2024-02-13T13:39:15.293Z,8.21
2024-02-13T13:41:42.569Z,8.21
2024-02-13T13:44:10.986Z,8.23
2024-02-13T13:46:37.603Z,8.22
2024-02-13T13:49:05.461Z,8.21
2024-02-13T13:51:34.713Z,8.26
2024-02-13T13:54:01.803Z,8.28
2024-02-13T13:56:28.371Z,8.29
2024-02-13T13:58:54.824Z,8.30
2024-02-13T14:01:21.462Z,8.27
2024-02-13T14:03:48.125Z,8.31
2024-02-13T14:06:14.898Z,8.32
2024-02-13T14:08:42.007Z,8.33
2024-02-13T14:11:08.689Z,8.34
2024-02-13T14:13:35.793Z,8.31
2024-02-13T14:16:02.430Z,8.37
2024-02-13T14:18:29.760Z,8.37
2024-02-13T14:20:56.946Z,8.38
2024-02-13T14:23:24.535Z,8.35
2024-02-13T14:25:51.687Z,8.38
2024-02-13T14:28:19.055Z,8.40
2024-02-13T14:30:47.216Z,8.43
2024-02-13T14:33:14.557Z,8.43
2024-02-13T14:35:43.422Z,8.40
2024-02-13T14:38:10.143Z,8.42
2024-02-13T14:40:40.857Z,8.42
2024-02-13T14:43:08.840Z,8.46
2024-02-13T14:45:36.737Z,8.46
2024-02-13T14:48:10.356Z,8.48
2024-02-13T14:50:39.033Z,8.46
2024-02-13T14:53:10.003Z,8.48
2024-02-13T14:55:39.681Z,8.47
2024-02-13T14:58:14.706Z,8.49
2024-02-13T15:00:54.151Z,8.45
2024-02-13T15:03:22.516Z,8.49
2024-02-13T15:05:49.280Z,8.51
2024-02-13T15:08:17.175Z,8.51
2024-02-13T15:10:45.334Z,8.51
2024-02-13T15:13:13.921Z,8.52
2024-02-13T15:15:40.468Z,8.52
2024-02-13T15:18:07.638Z,8.53
2024-02-13T15:20:36.429Z,8.49
2024-02-13T15:23:02.978Z,8.55
2024-02-13T15:25:30.018Z,8.54
2024-02-13T15:27:56.535Z,8.56
2024-02-13T15:30:23.870Z,8.54
2024-02-13T15:32:50.682Z,8.56
2024-02-13T15:35:20.226Z,8.55
2024-02-13T15:38:05.817Z,8.55
2024-02-13T15:40:51.003Z,8.53
2024-02-13T15:43:36.268Z,8.51
2024-02-13T15:46:21.112Z,8.56
2024-02-13T15:48:48.599Z,8.52
2024-02-13T15:51:15.959Z,8.55
2024-02-13T15:53:43.104Z,8.55
2024-02-13T15:56:10.996Z,8.58
2024-02-13T15:58:39.989Z,8.58
2024-02-13T16:01:07.258Z,8.58
2024-02-13T16:03:37.278Z,8.57
2024-02-13T16:06:04.236Z,8.58
2024-02-13T16:08:31.416Z,8.53
2024-02-13T16:10:58.639Z,8.56
2024-02-13T16:13:27.651Z,8.57
2024-02-13T16:15:56.162Z,8.56
2024-02-13T16:18:23.938Z,8.56
2024-02-13T16:20:50.590Z,8.58
2024-02-13T16:23:17.277Z,8.58
2024-02-13T16:25:44.018Z,8.55
2024-02-13T16:28:10.892Z,8.59
2024-02-13T16:30:37.474Z,8.56
2024-02-13T16:33:05.475Z,8.56
2024-02-13T16:35:32.494Z,8.58
2024-02-13T16:37:59.025Z,8.53
2024-02-13T16:40:27.612Z,8.56
2024-02-13T16:42:56.859Z,8.59
2024-02-13T16:45:25.461Z,8.58
2024-02-13T16:47:53.476Z,8.57
2024-02-13T16:50:20.589Z,8.57
2024-02-13T16:52:47.420Z,8.57
2024-02-13T16:55:15.060Z,8.55
2024-02-13T16:57:42.545Z,8.56
2024-02-13T17:00:11.777Z,8.55
2024-02-13T17:02:41.976Z,8.56
2024-02-13T17:05:12.140Z,8.56
2024-02-13T17:07:42.554Z,8.55
2024-02-13T17:10:10.021Z,8.55
2024-02-13T17:12:37.615Z,8.54
2024-02-13T17:15:08.500Z,8.54
2024-02-13T17:17:36.234Z,8.51
2024-02-13T17:20:05.066Z,8.52
2024-02-13T17:22:31.809Z,8.52
2024-02-13T17:24:58.342Z,8.52
2024-02-13T17:27:25.483Z,8.51
2024-02-13T17:29:52.965Z,8.52
2024-02-13T17:32:19.927Z,8.52
2024-02-13T17:34:46.460Z,8.44
2024-02-13T17:37:13.100Z,8.48
2024-02-13T17:39:39.619Z,8.49
2024-02-13T17:42:06.701Z,8.47
2024-02-13T17:44:33.353Z,8.47
2024-02-13T17:47:00.028Z,8.47
2024-02-13T17:49:26.750Z,8.47
2024-02-13T17:51:53.460Z,8.45
2024-02-13T17:54:19.974Z,8.44
2024-02-13T17:56:46.984Z,8.40
2024-02-13T17:59:13.543Z,8.43
2024-02-13T18:01:47.840Z,8.42
2024-02-13T18:04:14.417Z,8.40
2024-02-13T18:06:41.107Z,8.40
2024-02-13T18:09:07.989Z,8.39
2024-02-13T18:11:34.638Z,8.38
2024-02-13T18:14:01.893Z,8.37
2024-02-13T18:16:28.664Z,8.36
2024-02-13T18:18:57.295Z,8.36
2024-02-13T18:21:24.065Z,8.36
2024-02-13T18:23:55.217Z,8.33
2024-02-13T18:26:23.688Z,8.34
2024-02-13T18:28:50.246Z,8.33
2024-02-13T18:31:16.703Z,8.34
2024-02-13T18:33:43.558Z,8.32
2024-02-13T18:36:10.222Z,8.32
2024-02-13T18:38:36.996Z,8.28
2024-02-13T18:41:03.826Z,8.31
2024-02-13T18:43:30.478Z,8.27
2024-02-13T18:45:56.954Z,8.30
2024-02-13T18:48:26.483Z,8.29
2024-02-13T18:50:53.238Z,8.28
2024-02-13T18:53:28.059Z,8.27
2024-02-13T18:55:55.240Z,8.25
2024-02-13T18:58:22.038Z,8.25
2024-02-13T19:00:49.918Z,8.23
2024-02-13T19:03:20.681Z,8.25
2024-02-13T19:05:49.344Z,8.22
2024-02-13T19:08:15.955Z,8.17
2024-02-13T19:10:43.356Z,8.20
2024-02-13T19:13:09.860Z,8.19
2024-02-13T19:15:36.578Z,8.16
2024-02-13T19:18:03.659Z,8.19
2024-02-13T19:20:30.436Z,8.16
2024-02-13T19:22:56.998Z,8.14
2024-02-13T19:25:23.589Z,8.15
2024-02-13T19:27:50.903Z,8.14
2024-02-13T19:30:17.567Z,8.11
2024-02-13T19:32:44.149Z,8.11
2024-02-13T19:35:11.065Z,8.13
2024-02-13T19:37:38.068Z,8.12
2024-02-13T19:40:08.492Z,8.11
2024-02-13T19:42:36.386Z,8.10
2024-02-13T19:45:05.442Z,8.10
2024-02-13T19:47:32.570Z,8.08
2024-02-13T19:49:59.971Z,8.04
2024-02-13T19:52:30.734Z,8.05
2024-02-13T19:54:57.238Z,8.06
2024-02-13T19:57:23.707Z,8.03
2024-02-13T19:59:53.234Z,8.02
2024-02-13T20:02:21.126Z,8.01
2024-02-13T20:04:48.912Z,8.01
2024-02-13T20:07:16.273Z,8.00
2024-02-13T20:09:45.957Z,7.97
2024-02-13T20:12:12.664Z,7.96
2024-02-13T20:14:39.228Z,7.95
2024-02-13T20:17:06.092Z,7.95
2024-02-13T20:19:35.541Z,7.96
2024-02-13T20:22:02.352Z,7.94
2024-02-13T20:24:31.781Z,7.92
2024-02-13T20:26:59.824Z,7.92
2024-02-13T20:29:27.367Z,7.90
2024-02-13T20:31:53.902Z,7.93
2024-02-13T20:34:20.639Z,7.92
2024-02-13T20:36:53.387Z,7.91
2024-02-13T20:39:19.914Z,7.91
2024-02-13T20:41:46.444Z,7.88
2024-02-13T20:44:13.591Z,7.87
2024-02-13T20:46:42.120Z,7.86
2024-02-13T20:49:09.580Z,7.88
2024-02-13T20:51:36.684Z,7.88
2024-02-13T20:54:04.342Z,7.87
2024-02-13T20:56:30.940Z,7.82
2024-02-13T20:58:58.360Z,7.87
2024-02-13T21:01:28.240Z,7.87
2024-02-13T21:03:55.337Z,7.87
2024-02-13T21:06:25.086Z,7.85
2024-02-13T21:08:52.442Z,7.86
2024-02-13T21:11:19.541Z,7.84
2024-02-13T21:13:46.771Z,7.84
2024-02-13T21:16:15.456Z,7.85
2024-02-13T21:18:42.835Z,7.85
2024-02-13T21:21:28.060Z,7.85
2024-02-13T21:23:54.885Z,7.84
2024-02-13T21:26:21.543Z,7.84
2024-02-13T21:28:50.745Z,7.84
2024-02-13T21:31:17.544Z,7.82
2024-02-13T21:33:44.530Z,7.84
2024-02-13T21:36:11.323Z,7.83
2024-02-13T21:38:39.247Z,7.84
2024-02-13T21:41:06.199Z,7.82
2024-02-13T21:43:32.741Z,7.84
2024-02-13T21:45:59.422Z,7.81
2024-02-13T21:48:26.133Z,7.82
2024-02-13T21:50:52.745Z,7.81
2024-02-13T21:53:19.495Z,7.82
2024-02-13T21:55:46.019Z,7.82
2024-02-13T21:58:12.852Z,7.81
2024-02-13T22:00:39.361Z,7.80
2024-02-13T22:03:06.794Z,7.79
2024-02-13T22:05:34.145Z,7.80
2024-02-13T22:08:00.669Z,7.80
2024-02-13T22:10:27.161Z,7.67
2024-02-13T22:12:54.250Z,7.79
2024-02-13T22:15:22.107Z,7.76
2024-02-13T22:17:49.179Z,7.77
2024-02-13T22:20:16.796Z,7.77
2024-02-13T22:22:43.610Z,7.77
2024-02-13T22:25:11.398Z,7.75
2024-02-13T22:27:37.970Z,7.74
2024-02-13T22:30:04.964Z,7.75
2024-02-13T22:32:32.906Z,7.75
2024-02-13T22:34:59.888Z,7.73
2024-02-13T22:37:26.570Z,7.72
2024-02-13T22:39:53.212Z,7.70
2024-02-13T22:42:19.899Z,7.67
2024-02-13T22:44:46.576Z,7.71
2024-02-13T22:47:13.086Z,7.67
2024-02-13T22:49:39.774Z,7.63
2024-02-13T22:52:06.488Z,7.67
2024-02-13T22:54:32.947Z,7.63
2024-02-13T22:56:59.568Z,7.65
2024-02-13T22:59:26.082Z,7.63
2024-02-13T23:01:52.591Z,7.63
2024-02-13T23:04:19.820Z,7.61
2024-02-13T23:06:46.412Z,7.59
2024-02-13T23:09:18.049Z,7.60
2024-02-13T23:11:45.700Z,7.58
2024-02-13T23:14:15.101Z,7.57
2024-02-13T23:16:42.610Z,7.55
2024-02-13T23:19:11.344Z,7.56
2024-02-13T23:21:38.084Z,7.55
2024-02-13T23:24:09.038Z,7.53
2024-02-13T23:26:36.007Z,7.51
2024-02-13T23:29:02.564Z,7.48
2024-02-13T23:31:29.503Z,7.49
2024-02-13T23:33:56.320Z,7.47
2024-02-13T23:36:23.971Z,7.48
2024-02-13T23:38:50.829Z,7.47
2024-02-13T23:41:17.486Z,7.44
2024-02-13T23:43:44.736Z,7.42
2024-02-13T23:46:11.265Z,7.44
2024-02-13T23:48:38.596Z,7.43
2024-02-13T23:51:06.388Z,7.42
2024-02-13T23:53:33.125Z,7.39
2024-02-13T23:56:00.506Z,7.37
2024-02-13T23:58:28.130Z,7.36
